Venice, Italy

10:06 PM CEST on August 21, 2014 (GMT +0200)
Venezia | Change Station
CLOSE
Current Station
Personal Weather Station
Location: Dese, Venezia
Elevation: 14 ft
Nearby Weather Stations
Active Advisory: Thunderstorms

Elev 14 ft 45.53 °N, 12.31 °E | Updated 3 minutes ago

Scattered Clouds
Scattered Clouds
66.4 °F
Feels Like 66.4 °F
N
0.0
Wind Variable Wind from NNE
Gusts 0.0 mph

Today
High -- | Low -- °F
--% Chance of Precip.
Yesterday
High -- | Low -- °F
Precip. -- in
6:18 AM 8:08 PM
Waning Crescent, 12% visible
Pressure 29.95 in
Visibility 6.2 miles
Clouds Scattered Clouds 7000 ft
Dew Point 62 °F
Humidity 85%
Rainfall 0.75 in
Snow Depth Not available.
UV 0 out of 12
Pollen Not available.
Air Quality Not available.
Flu Activity Not available.
METAR LIPZ 211950Z 05006KT 9999 SCT070 22/17 Q1014

More Conditions Fewer Conditions

Pressure 29.95 in
Visibility 6.2 miles
Clouds Scattered Clouds 7000 ft
Dew Point 62 °F
Humidity 85%
Rainfall 0.75 in
Snow Depth Not available.
UV 0 out of 12
Pollen Not available.
Air Quality Not available.
Flu Activity Not available.
METAR LIPZ 211950Z 05006KT 9999 SCT070 22/17 Q1014

More Conditions Fewer Conditions

10-Day Weather Forecast

Almanac

Astronomy

Aug. 21, 2014 Rise Set
Actual Time 6:18 AM CEST 8:08 PM CEST
Civil Twilight 5:46 AM CEST 8:40 PM CEST
Nautical Twilight 5:07 AM CEST 9:18 PM CEST
Astronomical Twilight 4:25 AM CEST 10:00 PM CEST
Moon 2:29 AM CEST 5:29 PM CEST
Length of Visible Light 14h 53m
Length of Day
13h 50m
Tomorrow will be 2m 57s shorter.
Waning Crescent, 12% of the Moon is Illuminated
Today
Waning Crescent
Aug 25
New
Sep 2
First Quarter
Sep 8
Full
Sep 15
Last Quarter

Today's Extremes

Country Highs Country Lows

Community

WunderPhotos

Upload Photos

1,746,011 photos uploaded!

WunderBlogs® & News

Nearby

Snow Depth

Not available.

Earthquake Activity

City Distance Mag. Time & Date
No recent earthquake activity has been reported nearby.
Minimum magnitude displayed is 2.5.

Coastal Water Temperatures

Place Temperature
No Stations Reporting

Nearby Weather Stations